Station Historical Data
Daily Summary for January 3, 2018 Units:  English    Metric   Both
« Previous Day
Next Day »
Daily Weekly Monthly Yearly Custom
  High: Low: Average:
Temperature: 31.1 °F 5.1 °F 19.6 °F
Dew Point: 22.0 °F 1.0 °F 10.9 °F
Humidity: 87 % 53 % 70 %
Wind Speed: 8.0 mph 0.0 mph 0.2 mph
Wind Gust: 10.0 mph - -
Wind:- - ESE
Pressure: 30.45 in 29.99 in -
Precipitation: 0.00 in    
Historical Graphs
 
 
Tabular Data for January 3, 2018
Time Temperature Dew Point Pressure Wind Wind Speed Wind Gust Humidity Rainfall Rate (Hourly)
00:01 12.6 °F 4.1 °F 30.45 in Calm     68 % 0.00 in
00:06 12.7 °F 4.5 °F 30.45 in Calm     69 % 0.00 in
00:08 12.7 °F 4.5 °F 30.45 in Calm   1.0 mph 69 % 0.00 in
00:12 12.7 °F 4.5 °F 30.44 in Calm   1.0 mph 69 % 0.00 in
00:14 12.6 °F 4.4 °F 30.44 in Calm   1.0 mph 69 % 0.00 in
00:16 12.6 °F 4.4 °F 30.44 in Calm   1.0 mph 69 % 0.00 in
00:19 12.5 °F 4.3 °F 30.44 in Calm   1.0 mph 69 % 0.00 in
00:20 12.5 °F 4.3 °F 30.44 in Calm   1.0 mph 69 % 0.00 in
00:24 12.3 °F 4.4 °F 30.44 in Calm   1.0 mph 70 % 0.00 in
00:25 12.3 °F 4.4 °F 30.44 in Calm   1.0 mph 70 % 0.00 in
00:30 12.1 °F 4.2 °F 30.44 in Calm     70 % 0.00 in
00:31 12.0 °F 4.4 °F 30.44 in Calm     71 % 0.00 in
00:35 11.9 °F 4.3 °F 30.43 in Calm     71 % 0.00 in
00:40 11.7 °F 4.2 °F 30.43 in Calm     71 % 0.00 in
00:43 11.6 °F 4.1 °F 30.43 in Calm     71 % 0.00 in
00:47 11.5 °F 4.0 °F 30.43 in Calm     71 % 0.00 in
00:52 11.3 °F 4.1 °F 30.43 in Calm     72 % 0.00 in
00:53 11.3 °F 4.1 °F 30.43 in Calm     72 % 0.00 in
00:58 11.1 °F 3.9 °F 30.43 in Calm     72 % 0.00 in
01:02 10.9 °F 3.7 °F 30.43 in Calm     72 % 0.00 in
01:06 10.9 °F 3.7 °F 30.43 in Calm     72 % 0.00 in
01:10 10.8 °F 3.9 °F 30.43 in Calm     73 % 0.00 in
01:11 10.8 °F 3.9 °F 30.43 in Calm     73 % 0.00 in
01:16 10.7 °F 3.8 °F 30.43 in Calm     73 % 0.00 in
01:17 10.7 °F 3.8 °F 30.43 in Calm     73 % 0.00 in
01:20 10.6 °F 3.7 °F 30.43 in Calm     73 % 0.00 in
01:22 10.5 °F 3.9 °F 30.43 in Calm     74 % 0.00 in
01:28 10.3 °F 3.7 °F 30.43 in Calm     74 % 0.00 in
01:33 10.0 °F 3.4 °F 30.43 in Calm     74 % 0.00 in
01:38 9.8 °F 3.2 °F 30.43 in Calm     74 % 0.00 in
01:39 9.8 °F 3.2 °F 30.43 in Calm     74 % 0.00 in
01:44 9.6 °F 3.0 °F 30.43 in Calm     74 % 0.00 in
01:45 9.5 °F 2.9 °F 30.43 in Calm     74 % 0.00 in
01:50 9.3 °F 2.7 °F 30.43 in Calm     74 % 0.00 in
01:54 9.1 °F 2.8 °F 30.43 in Calm     75 % 0.00 in
01:59 9.0 °F 2.7 °F 30.43 in Calm     75 % 0.00 in
02:01 8.9 °F 2.6 °F 30.42 in Calm     75 % 0.00 in
02:02 8.9 °F 2.6 °F 30.42 in Calm     75 % 0.00 in
02:06 8.9 °F 2.9 °F 30.43 in Calm     76 % 0.00 in
02:09 8.9 °F 2.9 °F 30.43 in Calm     76 % 0.00 in
02:13 8.9 °F 3.2 °F 30.43 in Calm     77 % 0.00 in
02:15 8.8 °F 3.1 °F 30.43 in Calm     77 % 0.00 in
02:20 8.7 °F 3.0 °F 30.43 in Calm     77 % 0.00 in
02:21 8.6 °F 2.9 °F 30.43 in Calm     77 % 0.00 in
02:22 8.6 °F 2.9 °F 30.43 in Calm     77 % 0.00 in
02:27 8.3 °F 2.3 °F 30.42 in Calm     76 % 0.00 in
02:32 8.1 °F 2.4 °F 30.42 in Calm     77 % 0.00 in
02:33 8.1 °F 2.4 °F 30.42 in Calm     77 % 0.00 in
02:38 7.9 °F 1.9 °F 30.42 in Calm     76 % 0.00 in
02:39 7.8 °F 1.8 °F 30.42 in Calm     76 % 0.00 in
02:40 7.8 °F 2.1 °F 30.42 in Calm     77 % 0.00 in
02:45 7.7 °F 2.0 °F 30.42 in Calm     77 % 0.00 in
02:49 7.7 °F 2.3 °F 30.42 in Calm     78 % 0.00 in
02:54 7.6 °F 2.2 °F 30.42 in Calm     78 % 0.00 in
02:56 7.6 °F 2.2 °F 30.42 in Calm     78 % 0.00 in
02:57 7.6 °F 2.2 °F 30.42 in Calm     78 % 0.00 in
03:02 7.6 °F 2.2 °F 30.42 in Calm     78 % 0.00 in
03:05 7.6 °F 2.2 °F 30.42 in Calm     78 % 0.00 in
03:07 7.5 °F 2.1 °F 30.42 in Calm     78 % 0.00 in
03:12 7.3 °F 1.9 °F 30.41 in Calm     78 % 0.00 in
03:13 7.2 °F 1.8 °F 30.42 in Calm     78 % 0.00 in
03:14 7.2 °F 1.8 °F 30.41 in Calm     78 % 0.00 in
03:19 7.1 °F 1.7 °F 30.41 in Calm     78 % 0.00 in
03:21 7.0 °F 1.6 °F 30.41 in Calm     78 % 0.00 in
03:23 6.9 °F 1.8 °F 30.42 in Calm     79 % 0.00 in
03:24 6.9 °F 1.8 °F 30.41 in Calm     79 % 0.00 in
03:29 6.9 °F 1.8 °F 30.42 in Calm     79 % 0.00 in
03:32 6.9 °F 1.8 °F 30.42 in Calm     79 % 0.00 in
03:33 6.9 °F 1.8 °F 30.42 in Calm     79 % 0.00 in
03:38 6.9 °F 1.8 °F 30.42 in Calm     79 % 0.00 in
03:39 6.8 °F 1.7 °F 30.42 in Calm     79 % 0.00 in
03:44 6.7 °F 1.6 °F 30.41 in Calm     79 % 0.00 in
03:49 6.6 °F 1.5 °F 30.42 in Calm     79 % 0.00 in
03:53 6.4 °F 1.3 °F 30.41 in Calm     79 % 0.00 in
03:58 6.3 °F 1.4 °F 30.41 in Calm     80 % 0.00 in
04:00 6.3 °F 1.4 °F 30.41 in Calm     80 % 0.00 in
04:04 6.2 °F 1.4 °F 30.41 in Calm     80 % 0.00 in
04:09 6.0 °F 1.2 °F 30.41 in Calm     80 % 0.00 in
04:14 5.9 °F 1.1 °F 30.40 in Calm     80 % 0.00 in
04:15 5.9 °F 1.1 °F 30.40 in Calm     80 % 0.00 in
04:16 5.9 °F 1.1 °F 30.40 in Calm     80 % 0.00 in
04:20 5.8 °F 1.0 °F 30.40 in Calm     80 % 0.00 in
04:25 5.8 °F 1.2 °F 30.40 in Calm     81 % 0.00 in
04:26 5.8 °F 1.2 °F 30.40 in Calm     81 % 0.00 in
04:29 5.9 °F 1.3 °F 30.40 in Calm     81 % 0.00 in
04:31 5.9 °F 1.3 °F 30.40 in Calm     81 % 0.00 in
04:35 5.9 °F 1.3 °F 30.40 in Calm     81 % 0.00 in
04:36 5.9 °F 1.3 °F 30.40 in Calm     81 % 0.00 in
04:41 5.9 °F 1.3 °F 30.40 in Calm     81 % 0.00 in
04:43 5.8 °F 1.2 °F 30.40 in Calm     81 % 0.00 in
04:47 5.8 °F 1.2 °F 30.39 in Calm     81 % 0.00 in
04:50 5.7 °F 1.1 °F 30.39 in Calm     81 % 0.00 in
04:52 5.7 °F 1.1 °F 30.39 in Calm     81 % 0.00 in
04:56 5.7 °F 1.4 °F 30.39 in Calm     82 % 0.00 in
05:01 5.7 °F 1.4 °F 30.39 in Calm     82 % 0.00 in
05:02 5.7 °F 1.4 °F 30.40 in Calm     82 % 0.00 in
05:06 5.8 °F 1.5 °F 30.39 in Calm     82 % 0.00 in
05:08 5.8 °F 1.5 °F 30.39 in Calm     82 % 0.00 in
05:13 5.7 °F 1.4 °F 30.39 in Calm     82 % 0.00 in
05:14 5.7 °F 1.4 °F 30.39 in Calm     82 % 0.00 in
05:19 5.7 °F 1.4 °F 30.39 in Calm     82 % 0.00 in
05:21 5.6 °F 1.3 °F 30.39 in Calm     82 % 0.00 in
05:23 5.6 °F 1.3 °F 30.39 in Calm     82 % 0.00 in
05:27 5.7 °F 1.6 °F 30.38 in Calm     83 % 0.00 in
05:30 5.6 °F 1.5 °F 30.38 in Calm     83 % 0.00 in
05:32 5.6 °F 1.5 °F 30.38 in Calm     83 % 0.00 in
05:37 5.6 °F 1.5 °F 30.38 in Calm     83 % 0.00 in
05:39 5.6 °F 1.5 °F 30.38 in Calm     83 % 0.00 in
05:45 5.6 °F 1.6 °F 30.38 in Calm     83 % 0.00 in
05:46 5.6 °F 1.6 °F 30.38 in Calm     83 % 0.00 in
05:51 5.6 °F 1.6 °F 30.38 in Calm     83 % 0.00 in
05:56 5.6 °F 1.6 °F 30.38 in Calm     83 % 0.00 in
05:57 5.6 °F 1.8 °F 30.38 in Calm     84 % 0.00 in
06:02 5.7 °F 1.9 °F 30.38 in Calm     84 % 0.00 in
06:06 5.8 °F 2.0 °F 30.39 in Calm     84 % 0.00 in
06:07 5.8 °F 2.0 °F 30.39 in Calm     84 % 0.00 in
06:12 5.9 °F 2.1 °F 30.38 in Calm     84 % 0.00 in
06:13 5.8 °F 2.0 °F 30.39 in Calm     84 % 0.00 in
06:18 5.8 °F 2.0 °F 30.38 in Calm     84 % 0.00 in
06:22 5.7 °F 1.9 °F 30.39 in Calm     84 % 0.00 in
06:23 5.7 °F 1.7 °F 30.39 in Calm     83 % 0.00 in
06:28 5.6 °F 1.6 °F 30.39 in Calm     83 % 0.00 in
06:29 5.5 °F 1.5 °F 30.39 in Calm     83 % 0.00 in
06:34 5.5 °F 1.5 °F 30.39 in Calm     83 % 0.00 in
06:35 5.4 °F 1.6 °F 30.39 in Calm     84 % 0.00 in
06:40 5.4 °F 1.6 °F 30.39 in Calm     84 % 0.00 in
06:41 5.4 °F 1.4 °F 30.39 in Calm     83 % 0.00 in
06:46 5.4 °F 1.6 °F 30.39 in Calm     84 % 0.00 in
06:48 5.3 °F 1.5 °F 30.39 in Calm     84 % 0.00 in
06:53 5.3 °F 1.5 °F 30.39 in Calm     84 % 0.00 in
06:58 5.2 °F 1.4 °F 30.39 in Calm     84 % 0.00 in
07:01 5.2 °F 1.4 °F 30.39 in Calm     84 % 0.00 in
07:06 5.1 °F 1.3 °F 30.39 in Calm     84 % 0.00 in
07:11 5.2 °F 1.4 °F 30.39 in Calm     84 % 0.00 in
07:12 5.2 °F 1.4 °F 30.39 in Calm     84 % 0.00 in
07:16 5.2 °F 1.4 °F 30.38 in Calm     84 % 0.00 in
07:19 5.2 °F 1.4 °F 30.39 in Calm     84 % 0.00 in
07:24 5.2 °F 1.4 °F 30.39 in Calm     84 % 0.00 in
07:25 5.2 °F 1.4 °F 30.39 in Calm     84 % 0.00 in
07:30 5.2 °F 1.4 °F 30.39 in Calm     84 % 0.00 in
07:35 5.5 °F 2.0 °F 30.39 in Calm     85 % 0.00 in
07:36 5.5 °F 2.0 °F 30.39 in Calm     85 % 0.00 in
07:41 5.6 °F 2.1 °F 30.39 in Calm     85 % 0.00 in
07:44 5.6 °F 2.1 °F 30.39 in Calm     85 % 0.00 in
07:46 5.6 °F 2.1 °F 30.39 in Calm     85 % 0.00 in
07:51 5.7 °F 2.2 °F 30.39 in Calm     85 % 0.00 in
07:52 5.7 °F 2.2 °F 30.39 in Calm     85 % 0.00 in
07:57 5.8 °F 2.3 °F 30.39 in Calm     85 % 0.00 in
08:02 5.9 °F 2.4 °F 30.39 in Calm     85 % 0.00 in
08:03 5.9 °F 2.4 °F 30.39 in Calm     85 % 0.00 in
08:04 5.9 °F 2.4 °F 30.39 in Calm     85 % 0.00 in
08:09 6.0 °F 2.5 °F 30.39 in Calm     85 % 0.00 in
08:14 6.4 °F 2.9 °F 30.39 in Calm     85 % 0.00 in
08:15 6.5 °F 3.2 °F 30.39 in Calm     86 % 0.00 in
08:19 6.8 °F 3.5 °F 30.39 in Calm     86 % 0.00 in
08:20 6.8 °F 3.5 °F 30.39 in Calm     86 % 0.00 in
08:25 7.3 °F 4.0 °F 30.39 in Calm     86 % 0.00 in
08:26 7.4 °F 4.1 °F 30.39 in Calm     86 % 0.00 in
08:27 7.5 °F 4.2 °F 30.39 in Calm     86 % 0.00 in
08:31 7.9 °F 4.6 °F 30.39 in Calm     86 % 0.00 in
08:36 8.3 °F 5.0 °F 30.39 in Calm     86 % 0.00 in
08:41 8.7 °F 5.4 °F 30.39 in Calm     86 % 0.00 in
08:43 8.9 °F 5.5 °F 30.39 in Calm     86 % 0.00 in
08:47 9.4 °F 6.1 °F 30.39 in Calm     86 % 0.00 in
08:52 9.9 °F 6.8 °F 30.39 in Calm     87 % 0.00 in
08:54 10.2 °F 7.1 °F 30.39 in Calm     87 % 0.00 in
08:59 10.9 °F 7.8 °F 30.39 in Calm   1.0 mph 87 % 0.00 in
09:03 11.7 °F 8.6 °F 30.39 in Calm   1.0 mph 87 % 0.00 in
09:04 11.9 °F 8.8 °F 30.39 in Calm   1.0 mph 87 % 0.00 in
09:09 12.9 °F 9.8 °F 30.39 in Calm   1.0 mph 87 % 0.00 in
09:14 13.9 °F 10.5 °F 30.39 in Calm   1.0 mph 86 % 0.00 in
09:16 14.2 °F 10.5 °F 30.39 in Calm   1.0 mph 85 % 0.00 in
09:17 14.4 °F 10.7 °F 30.39 in Calm   1.0 mph 85 % 0.00 in
09:22 15.5 °F 11.5 °F 30.39 in Calm   2.0 mph 84 % 0.00 in
09:27 16.9 °F 12.9 °F 30.39 in Calm   2.0 mph 84 % 0.00 in
09:28 17.0 °F 13.0 °F 30.39 in Calm   2.0 mph 84 % 0.00 in
09:33 18.0 °F 13.7 °F 30.39 in Calm   2.0 mph 83 % 0.00 in
09:36 18.4 °F 13.8 °F 30.39 in Calm   3.0 mph 82 % 0.00 in
09:38 18.7 °F 14.1 °F 30.38 in SW 1.0 mph 3.0 mph 82 % 0.00 in
09:41 19.3 °F 14.4 °F 30.38 in SW 1.0 mph 3.0 mph 81 % 0.00 in
09:46 19.8 °F 14.3 °F 30.38 in Calm   3.0 mph 79 % 0.00 in
09:49 20.1 °F 14.6 °F 30.38 in Calm   3.0 mph 79 % 0.00 in
09:54 20.7 °F 14.9 °F 30.38 in Calm   2.0 mph 78 % 0.00 in
09:55 20.8 °F 15.0 °F 30.38 in Calm   2.0 mph 78 % 0.00 in
09:58 21.1 °F 15.0 °F 30.38 in Calm   2.0 mph 77 % 0.00 in
10:00 21.3 °F 15.2 °F 30.38 in Calm   2.0 mph 77 % 0.00 in
10:05 22.2 °F 15.5 °F 30.37 in ESE 8.0 mph 10.0 mph 75 % 0.00 in
10:07 22.6 °F 15.3 °F 30.37 in East 1.0 mph 10.0 mph 73 % 0.00 in
10:10 23.3 °F 15.0 °F 30.37 in ENE 4.0 mph 10.0 mph 70 % 0.00 in
10:15 24.0 °F 14.7 °F 30.37 in East 5.0 mph 10.0 mph 67 % 0.00 in
10:16 24.0 °F 14.3 °F 30.37 in ENE 4.0 mph 10.0 mph 66 % 0.00 in
10:21 24.4 °F 14.0 °F 30.37 in East 5.0 mph 10.0 mph 64 % 0.00 in
10:22 24.6 °F 14.1 °F 30.36 in East 6.0 mph 10.0 mph 64 % 0.00 in
10:24 24.8 °F 14.0 °F 30.37 in East 2.0 mph 8.0 mph 63 % 0.00 in
10:27 25.1 °F 14.3 °F 30.36 in SE 5.0 mph 8.0 mph 63 % 0.00 in
10:32 25.2 °F 13.6 °F 30.36 in Calm   8.0 mph 61 % 0.00 in
10:33 25.2 °F 13.6 °F 30.36 in Calm   8.0 mph 61 % 0.00 in
10:36 25.3 °F 13.7 °F 30.36 in Calm   8.0 mph 61 % 0.00 in
10:41 25.5 °F 13.2 °F 30.36 in Calm   8.0 mph 59 % 0.00 in
10:42 25.5 °F 13.2 °F 30.36 in SE 5.0 mph 8.0 mph 59 % 0.00 in
10:47 25.7 °F 12.9 °F 30.36 in Calm   8.0 mph 58 % 0.00 in
10:52 25.9 °F 12.3 °F 30.36 in Calm   8.0 mph 56 % 0.00 in
10:53 25.8 °F 11.8 °F 30.36 in ESE 2.0 mph 8.0 mph 55 % 0.00 in
10:58 26.0 °F 12.0 °F 30.35 in ESE 3.0 mph 7.0 mph 55 % 0.00 in
11:00 26.0 °F 12.0 °F 30.35 in ESE 1.0 mph 7.0 mph 55 % 0.00 in
11:05 26.1 °F 11.7 °F 30.35 in East 3.0 mph 7.0 mph 54 % 0.00 in
11:06 26.1 °F 11.3 °F 30.35 in Calm   7.0 mph 53 % 0.00 in
11:09 26.1 °F 11.3 °F 30.35 in ESE 3.0 mph 7.0 mph 53 % 0.00 in
11:13 26.2 °F 11.4 °F 30.34 in ESE 5.0 mph 10.0 mph 53 % 0.00 in
11:15 26.2 °F 11.4 °F 30.34 in Calm   10.0 mph 53 % 0.00 in
11:19 26.1 °F 11.3 °F 30.34 in ESE 1.0 mph 10.0 mph 53 % 0.00 in
11:20 26.1 °F 11.7 °F 30.34 in Calm   10.0 mph 54 % 0.00 in
11:24 26.1 °F 11.3 °F 30.33 in Calm   10.0 mph 53 % 0.00 in
11:29 26.2 °F 11.8 °F 30.33 in Calm   10.0 mph 54 % 0.00 in
11:34 26.4 °F 12.0 °F 30.32 in Calm   5.0 mph 54 % 0.00 in
11:39 26.5 °F 12.1 °F 30.32 in Calm   4.0 mph 54 % 0.00 in
11:40 26.6 °F 12.2 °F 30.32 in ESE 2.0 mph 4.0 mph 54 % 0.00 in
11:45 26.7 °F 12.3 °F 30.31 in Calm   3.0 mph 54 % 0.00 in
11:49 26.8 °F 12.8 °F 30.31 in Calm   3.0 mph 55 % 0.00 in
11:54 26.9 °F 12.4 °F 30.31 in Calm   3.0 mph 54 % 0.00 in
11:55 27.0 °F 12.5 °F 30.31 in Calm   3.0 mph 54 % 0.00 in
12:00 27.2 °F 13.2 °F 30.30 in ESE 1.0 mph 3.0 mph 55 % 0.00 in
12:02 27.4 °F 13.8 °F 30.30 in ESE 1.0 mph 3.0 mph 56 % 0.00 in
12:07 27.6 °F 13.5 °F 30.30 in Calm   3.0 mph 55 % 0.00 in
12:08 27.6 °F 13.5 °F 30.30 in Calm   3.0 mph 55 % 0.00 in
12:14 27.8 °F 14.1 °F 30.29 in East 2.0 mph 5.0 mph 56 % 0.00 in
12:19 27.8 °F 14.1 °F 30.28 in Calm   6.0 mph 56 % 0.00 in
12:20 27.9 °F 14.2 °F 30.28 in Calm   6.0 mph 56 % 0.00 in
12:26 27.9 °F 13.8 °F 30.28 in East 5.0 mph 6.0 mph 55 % 0.00 in
12:27 28.0 °F 13.9 °F 30.27 in East 2.0 mph 6.0 mph 55 % 0.00 in
12:29 28.0 °F 13.9 °F 30.27 in East 1.0 mph 6.0 mph 55 % 0.00 in
12:33 28.1 °F 14.0 °F 30.27 in Calm   6.0 mph 55 % 0.00 in
12:38 28.2 °F 14.1 °F 30.27 in East 2.0 mph 6.0 mph 55 % 0.00 in
12:40 28.2 °F 13.7 °F 30.26 in East 1.0 mph 6.0 mph 54 % 0.00 in
12:45 28.3 °F 14.2 °F 30.26 in Calm   6.0 mph 55 % 0.00 in
12:46 28.3 °F 14.2 °F 30.26 in Calm   5.0 mph 55 % 0.00 in
12:49 28.4 °F 14.7 °F 30.26 in Calm   5.0 mph 56 % 0.00 in
12:51 28.5 °F 14.8 °F 30.25 in Calm   5.0 mph 56 % 0.00 in
12:56 28.7 °F 14.6 °F 30.24 in Calm   3.0 mph 55 % 0.00 in
13:01 29.0 °F 14.8 °F 30.24 in Calm   2.0 mph 55 % 0.00 in
13:07 29.2 °F 15.0 °F 30.24 in Calm   5.0 mph 55 % 0.00 in
13:09 29.3 °F 15.1 °F 30.24 in Calm   5.0 mph 55 % 0.00 in
13:14 29.4 °F 15.2 °F 30.24 in Calm   5.0 mph 55 % 0.00 in
13:17 29.5 °F 15.3 °F 30.24 in Calm   5.0 mph 55 % 0.00 in
13:22 29.7 °F 15.5 °F 30.23 in Calm   5.0 mph 55 % 0.00 in
13:23 29.7 °F 15.5 °F 30.23 in Calm   5.0 mph 55 % 0.00 in
13:28 29.8 °F 15.2 °F 30.23 in Calm   3.0 mph 54 % 0.00 in
13:29 29.8 °F 15.2 °F 30.23 in Calm   3.0 mph 54 % 0.00 in
13:30 29.8 °F 15.2 °F 30.23 in Calm   3.0 mph 54 % 0.00 in
13:35 29.9 °F 15.3 °F 30.22 in Calm   3.0 mph 54 % 0.00 in
13:37 29.9 °F 15.7 °F 30.22 in Calm   3.0 mph 55 % 0.00 in
13:40 30.0 °F 15.3 °F 30.22 in ESE 1.0 mph 5.0 mph 54 % 0.00 in
13:45 29.9 °F 15.3 °F 30.21 in ESE 2.0 mph 5.0 mph 54 % 0.00 in
13:46 29.9 °F 15.3 °F 30.21 in Calm   5.0 mph 54 % 0.00 in
13:48 29.9 °F 15.7 °F 30.21 in Calm   5.0 mph 55 % 0.00 in
13:51 29.8 °F 15.6 °F 30.21 in Calm   5.0 mph 55 % 0.00 in
13:55 29.8 °F 15.6 °F 30.21 in Calm   5.0 mph 55 % 0.00 in
13:57 29.8 °F 16.0 °F 30.21 in Calm   5.0 mph 56 % 0.00 in
14:02 29.8 °F 16.0 °F 30.21 in ESE 1.0 mph 5.0 mph 56 % 0.00 in
14:07 29.8 °F 16.0 °F 30.21 in ESE 2.0 mph 5.0 mph 56 % 0.00 in
14:08 29.8 °F 16.0 °F 30.21 in Calm   5.0 mph 56 % 0.00 in
14:11 29.8 °F 16.0 °F 30.21 in Calm   3.0 mph 56 % 0.00 in
14:13 29.9 °F 16.1 °F 30.21 in Calm   3.0 mph 56 % 0.00 in
14:18 30.0 °F 16.2 °F 30.21 in Calm   3.0 mph 56 % 0.00 in
14:19 30.0 °F 15.8 °F 30.21 in Calm   3.0 mph 55 % 0.00 in
14:24 30.1 °F 16.3 °F 30.21 in Calm   3.0 mph 56 % 0.00 in
14:25 30.2 °F 16.4 °F 30.21 in ESE 1.0 mph 3.0 mph 56 % 0.00 in
14:30 30.3 °F 16.1 °F 30.21 in Calm   3.0 mph 55 % 0.00 in
14:32 30.4 °F 16.2 °F 30.21 in Calm   3.0 mph 55 % 0.00 in
14:35 30.5 °F 16.7 °F 30.21 in Calm   3.0 mph 56 % 0.00 in
14:40 30.5 °F 16.2 °F 30.21 in Calm   3.0 mph 55 % 0.00 in
14:45 30.6 °F 16.3 °F 30.21 in ESE 1.0 mph 3.0 mph 55 % 0.00 in
14:47 30.7 °F 16.4 °F 30.21 in Calm   3.0 mph 55 % 0.00 in
14:52 30.8 °F 16.5 °F 30.21 in Calm   3.0 mph 55 % 0.00 in
14:56 30.9 °F 16.6 °F 30.21 in ESE 2.0 mph 3.0 mph 55 % 0.00 in
15:01 31.0 °F 16.7 °F 30.20 in Calm   3.0 mph 55 % 0.00 in
15:03 31.1 °F 16.8 °F 30.20 in Calm   3.0 mph 55 % 0.00 in
15:08 31.1 °F 16.4 °F 30.21 in Calm   5.0 mph 54 % 0.00 in
15:09 31.1 °F 16.4 °F 30.20 in ESE 2.0 mph 5.0 mph 54 % 0.00 in
15:14 31.0 °F 16.3 °F 30.21 in Calm   5.0 mph 54 % 0.00 in
15:18 30.9 °F 16.6 °F 30.21 in ESE 1.0 mph 5.0 mph 55 % 0.00 in
15:23 31.0 °F 16.3 °F 30.21 in Calm   5.0 mph 54 % 0.00 in
15:26 31.0 °F 16.3 °F 30.21 in Calm   5.0 mph 54 % 0.00 in
15:28 31.0 °F 16.3 °F 30.21 in Calm   3.0 mph 54 % 0.00 in
15:32 31.1 °F 16.4 °F 30.22 in Calm   3.0 mph 54 % 0.00 in
15:37 31.1 °F 16.4 °F 30.22 in Calm   5.0 mph 54 % 0.00 in
15:41 31.1 °F 16.4 °F 30.22 in Calm   5.0 mph 54 % 0.00 in
15:45 31.1 °F 16.4 °F 30.21 in Calm   5.0 mph 54 % 0.00 in
15:50 31.0 °F 16.3 °F 30.20 in Calm   4.0 mph 54 % 0.00 in
15:55 30.9 °F 16.2 °F 30.20 in Calm   4.0 mph 54 % 0.00 in
16:00 30.8 °F 16.1 °F 30.19 in Calm   2.0 mph 54 % 0.00 in
16:01 30.8 °F 16.1 °F 30.19 in Calm   2.0 mph 54 % 0.00 in
16:06 30.7 °F 16.4 °F 30.19 in Calm   2.0 mph 55 % 0.00 in
16:07 30.7 °F 16.4 °F 30.19 in Calm   2.0 mph 55 % 0.00 in
16:11 30.7 °F 16.4 °F 30.19 in Calm   2.0 mph 55 % 0.00 in
16:12 30.6 °F 15.9 °F 30.19 in Calm   2.0 mph 54 % 0.00 in
16:17 30.6 °F 15.9 °F 30.18 in Calm   1.0 mph 54 % 0.00 in
16:18 30.5 °F 15.8 °F 30.18 in Calm   3.0 mph 54 % 0.00 in
16:23 30.3 °F 15.6 °F 30.18 in Calm   3.0 mph 54 % 0.00 in
16:24 30.3 °F 15.6 °F 30.18 in Calm   3.0 mph 54 % 0.00 in
16:29 30.1 °F 15.4 °F 30.17 in Calm   3.0 mph 54 % 0.00 in
16:34 29.9 °F 15.7 °F 30.17 in Calm   3.0 mph 55 % 0.00 in
16:35 29.9 °F 15.7 °F 30.17 in Calm   3.0 mph 55 % 0.00 in
16:36 29.8 °F 15.6 °F 30.17 in Calm   3.0 mph 55 % 0.00 in
16:41 29.7 °F 15.5 °F 30.17 in ESE 2.0 mph 2.0 mph 55 % 0.00 in
16:42 29.7 °F 15.5 °F 30.17 in Calm   2.0 mph 55 % 0.00 in
16:46 29.4 °F 15.6 °F 30.17 in Calm   3.0 mph 56 % 0.00 in
16:47 29.4 °F 15.6 °F 30.17 in Calm   3.0 mph 56 % 0.00 in
16:52 29.1 °F 15.8 °F 30.16 in Calm   3.0 mph 57 % 0.00 in
16:56 28.9 °F 15.6 °F 30.16 in Calm   3.0 mph 57 % 0.00 in
17:01 28.6 °F 15.7 °F 30.16 in Calm   3.0 mph 58 % 0.00 in
17:02 28.6 °F 15.7 °F 30.16 in Calm   3.0 mph 58 % 0.00 in
17:06 28.3 °F 15.4 °F 30.15 in Calm   1.0 mph 58 % 0.00 in
17:08 28.2 °F 15.7 °F 30.15 in Calm   1.0 mph 59 % 0.00 in
17:13 28.0 °F 15.5 °F 30.15 in Calm   1.0 mph 59 % 0.00 in
17:14 27.9 °F 15.8 °F 30.15 in Calm   1.0 mph 60 % 0.00 in
17:19 27.7 °F 15.7 °F 30.15 in Calm   1.0 mph 60 % 0.00 in
17:23 27.5 °F 15.9 °F 30.15 in Calm   1.0 mph 61 % 0.00 in
17:27 27.2 °F 15.6 °F 30.15 in Calm     61 % 0.00 in
17:32 26.9 °F 15.7 °F 30.16 in Calm   1.0 mph 62 % 0.00 in
17:33 26.9 °F 15.7 °F 30.16 in Calm   1.0 mph 62 % 0.00 in
17:36 26.7 °F 15.5 °F 30.16 in Calm   1.0 mph 62 % 0.00 in
17:39 26.6 °F 15.4 °F 30.16 in Calm   1.0 mph 62 % 0.00 in
17:44 26.3 °F 15.5 °F 30.16 in Calm   1.0 mph 63 % 0.00 in
17:46 26.3 °F 15.8 °F 30.16 in Calm   1.0 mph 64 % 0.00 in
17:48 26.2 °F 15.7 °F 30.16 in Calm   3.0 mph 64 % 0.00 in
17:53 26.3 °F 15.8 °F 30.17 in Calm   3.0 mph 64 % 0.00 in
17:55 26.4 °F 15.9 °F 30.17 in Calm   3.0 mph 64 % 0.00 in
17:59 26.5 °F 16.0 °F 30.17 in Calm   3.0 mph 64 % 0.00 in
18:01 26.5 °F 16.0 °F 30.17 in Calm   3.0 mph 64 % 0.00 in
18:05 26.6 °F 16.1 °F 30.17 in Calm   3.0 mph 64 % 0.00 in
18:10 26.7 °F 16.1 °F 30.16 in Calm   3.0 mph 64 % 0.00 in
18:11 26.8 °F 16.2 °F 30.16 in Calm   3.0 mph 64 % 0.00 in
18:15 26.8 °F 15.9 °F 30.15 in Calm   3.0 mph 63 % 0.00 in
18:18 26.9 °F 16.0 °F 30.15 in Calm   3.0 mph 63 % 0.00 in
18:22 26.8 °F 15.9 °F 30.15 in Calm   3.0 mph 63 % 0.00 in
18:26 26.8 °F 15.6 °F 30.15 in Calm   3.0 mph 62 % 0.00 in
18:29 26.8 °F 15.6 °F 30.15 in Calm   2.0 mph 62 % 0.00 in
18:33 26.8 °F 15.9 °F 30.14 in Calm   2.0 mph 63 % 0.00 in
18:37 26.8 °F 15.9 °F 30.14 in Calm   2.0 mph 63 % 0.00 in
18:42 26.8 °F 16.3 °F 30.14 in Calm   1.0 mph 64 % 0.00 in
18:44 26.8 °F 16.3 °F 30.14 in Calm   1.0 mph 64 % 0.00 in
18:49 26.7 °F 16.6 °F 30.14 in Calm   1.0 mph 65 % 0.00 in
18:54 26.6 °F 16.5 °F 30.14 in Calm     65 % 0.00 in
18:59 26.6 °F 16.5 °F 30.14 in Calm     65 % 0.00 in
19:01 26.6 °F 16.5 °F 30.14 in Calm     65 % 0.00 in
19:06 26.5 °F 16.4 °F 30.14 in Calm     65 % 0.00 in
19:08 26.4 °F 16.3 °F 30.13 in Calm     65 % 0.00 in
19:14 26.4 °F 16.6 °F 30.14 in Calm     66 % 0.00 in
19:17 26.3 °F 16.9 °F 30.13 in Calm     67 % 0.00 in
19:22 26.4 °F 17.0 °F 30.13 in Calm     67 % 0.00 in
19:23 26.4 °F 17.0 °F 30.13 in Calm     67 % 0.00 in
19:28 26.4 °F 17.0 °F 30.13 in Calm     67 % 0.00 in
19:29 26.4 °F 17.0 °F 30.13 in Calm     67 % 0.00 in
19:34 26.5 °F 17.1 °F 30.12 in Calm   1.0 mph 67 % 0.00 in
19:38 26.5 °F 17.4 °F 30.12 in Calm   1.0 mph 68 % 0.00 in
19:40 26.5 °F 17.4 °F 30.12 in Calm   1.0 mph 68 % 0.00 in
19:45 26.5 °F 17.4 °F 30.12 in Calm   1.0 mph 68 % 0.00 in
19:48 26.5 °F 17.4 °F 30.13 in Calm   1.0 mph 68 % 0.00 in
19:51 26.5 °F 17.4 °F 30.13 in Calm   1.0 mph 68 % 0.00 in
19:52 26.6 °F 17.5 °F 30.13 in Calm   1.0 mph 68 % 0.00 in
19:54 26.6 °F 17.5 °F 30.13 in Calm   1.0 mph 68 % 0.00 in
19:57 26.6 °F 17.1 °F 30.13 in Calm   1.0 mph 67 % 0.00 in
20:00 26.6 °F 17.2 °F 30.13 in Calm   1.0 mph 67 % 0.00 in
20:03 26.6 °F 17.2 °F 30.13 in Calm     67 % 0.00 in
20:08 26.7 °F 17.6 °F 30.11 in Calm     68 % 0.00 in
20:13 26.7 °F 17.6 °F 30.12 in Calm     68 % 0.00 in
20:18 26.8 °F 17.6 °F 30.12 in Calm     68 % 0.00 in
20:20 26.8 °F 17.6 °F 30.11 in Calm     68 % 0.00 in
20:22 26.8 °F 17.6 °F 30.11 in Calm     68 % 0.00 in
20:27 26.9 °F 17.8 °F 30.11 in Calm     68 % 0.00 in
20:28 26.9 °F 17.8 °F 30.10 in Calm     68 % 0.00 in
20:33 27.0 °F 17.9 °F 30.10 in Calm   1.0 mph 68 % 0.00 in
20:34 27.0 °F 17.9 °F 30.10 in Calm   1.0 mph 68 % 0.00 in
20:39 27.1 °F 18.0 °F 30.09 in Calm   1.0 mph 68 % 0.00 in
20:44 27.2 °F 18.1 °F 30.09 in Calm   1.0 mph 68 % 0.00 in
20:49 27.3 °F 18.2 °F 30.08 in Calm   1.0 mph 68 % 0.00 in
20:51 27.3 °F 18.2 °F 30.08 in Calm   1.0 mph 68 % 0.00 in
20:55 27.4 °F 18.2 °F 30.08 in Calm   1.0 mph 68 % 0.00 in
21:00 27.4 °F 18.2 °F 30.07 in Calm   1.0 mph 68 % 0.00 in
21:01 27.4 °F 18.2 °F 30.07 in Calm   1.0 mph 68 % 0.00 in
21:06 27.5 °F 18.4 °F 30.07 in Calm   1.0 mph 68 % 0.00 in
21:11 27.6 °F 18.5 °F 30.07 in Calm   1.0 mph 68 % 0.00 in
21:12 27.6 °F 18.5 °F 30.07 in Calm   1.0 mph 68 % 0.00 in
21:14 27.6 °F 18.5 °F 30.08 in Calm   1.0 mph 68 % 0.00 in
21:18 27.7 °F 18.6 °F 30.08 in Calm   1.0 mph 68 % 0.00 in
21:20 27.7 °F 18.6 °F 30.08 in Calm   1.0 mph 68 % 0.00 in
21:24 27.8 °F 18.7 °F 30.08 in Calm   1.0 mph 68 % 0.00 in
21:28 27.8 °F 18.7 °F 30.08 in Calm   1.0 mph 68 % 0.00 in
21:31 27.8 °F 18.3 °F 30.08 in Calm   2.0 mph 67 % 0.00 in
21:36 27.9 °F 18.4 °F 30.08 in Calm   2.0 mph 67 % 0.00 in
21:37 27.9 °F 18.4 °F 30.08 in Calm   2.0 mph 67 % 0.00 in
21:42 27.9 °F 18.4 °F 30.07 in Calm   2.0 mph 67 % 0.00 in
21:43 27.9 °F 18.4 °F 30.07 in Calm   2.0 mph 67 % 0.00 in
21:48 27.9 °F 18.1 °F 30.07 in Calm   1.0 mph 66 % 0.00 in
21:49 27.9 °F 18.1 °F 30.07 in Calm   1.0 mph 66 % 0.00 in
21:54 28.0 °F 18.2 °F 30.07 in Calm   1.0 mph 66 % 0.00 in
21:59 28.0 °F 18.2 °F 30.07 in Calm   1.0 mph 66 % 0.00 in
22:04 28.0 °F 18.1 °F 30.06 in Calm   2.0 mph 66 % 0.00 in
22:09 28.0 °F 18.1 °F 30.07 in Calm   2.0 mph 66 % 0.00 in
22:14 28.0 °F 18.1 °F 30.06 in Calm   2.0 mph 66 % 0.00 in
22:16 28.0 °F 18.1 °F 30.06 in Calm   2.0 mph 66 % 0.00 in
22:21 28.0 °F 18.2 °F 30.06 in ESE 1.0 mph 3.0 mph 66 % 0.00 in
22:22 28.0 °F 18.2 °F 30.06 in ESE 1.0 mph 3.0 mph 66 % 0.00 in
22:27 28.0 °F 18.2 °F 30.06 in Calm   4.0 mph 66 % 0.00 in
22:31 28.0 °F 18.5 °F 30.06 in Calm   4.0 mph 67 % 0.00 in
22:34 27.9 °F 18.4 °F 30.05 in Calm   4.0 mph 67 % 0.00 in
22:39 27.9 °F 18.4 °F 30.05 in Calm   4.0 mph 67 % 0.00 in
22:41 27.8 °F 18.3 °F 30.04 in Calm   4.0 mph 67 % 0.00 in
22:44 27.8 °F 18.3 °F 30.04 in ESE 1.0 mph 3.0 mph 67 % 0.00 in
22:51 27.8 °F 18.3 °F 30.04 in Calm   5.0 mph 67 % 0.00 in
22:56 27.8 °F 18.3 °F 30.04 in Calm   5.0 mph 67 % 0.00 in
23:00 27.7 °F 18.6 °F 30.04 in Calm   5.0 mph 68 % 0.00 in
23:05 27.6 °F 19.1 °F 30.03 in Calm   5.0 mph 70 % 0.00 in
23:08 27.6 °F 19.1 °F 30.03 in Calm   5.0 mph 70 % 0.00 in
23:11 27.6 °F 19.5 °F 30.03 in Calm   5.0 mph 71 % 0.00 in
23:14 27.5 °F 19.7 °F 30.03 in Calm   5.0 mph 72 % 0.00 in
23:15 27.5 °F 19.7 °F 30.03 in Calm   5.0 mph 72 % 0.00 in
23:16 27.5 °F 20.0 °F 30.03 in Calm   5.0 mph 73 % 0.00 in
23:17 27.5 °F 20.0 °F 30.03 in Calm   3.0 mph 73 % 0.00 in
23:18 27.4 °F 19.9 °F 30.03 in Calm   3.0 mph 73 % 0.00 in
23:21 27.4 °F 20.2 °F 30.03 in ESE 1.0 mph 3.0 mph 74 % 0.00 in
23:22 27.3 °F 20.1 °F 30.02 in Calm   3.0 mph 74 % 0.00 in
23:27 27.2 °F 20.7 °F 30.02 in Calm   3.0 mph 76 % 0.00 in
23:28 27.2 °F 20.7 °F 30.02 in Calm   3.0 mph 76 % 0.00 in
23:33 27.0 °F 21.1 °F 30.01 in Calm   3.0 mph 78 % 0.00 in
23:34 27.0 °F 21.1 °F 30.01 in Calm   3.0 mph 78 % 0.00 in
23:39 26.9 °F 21.3 °F 30.01 in Calm   3.0 mph 79 % 0.00 in
23:42 26.8 °F 21.5 °F 30.00 in Calm   2.0 mph 80 % 0.00 in
23:44 26.8 °F 21.5 °F 30.00 in Calm   2.0 mph 80 % 0.00 in
23:45 26.8 °F 21.7 °F 30.00 in Calm   2.0 mph 81 % 0.00 in
23:48 26.7 °F 21.9 °F 30.00 in Calm   1.0 mph 82 % 0.00 in
23:50 26.6 °F 21.8 °F 30.00 in Calm   1.0 mph 82 % 0.00 in
23:52 26.6 °F 21.8 °F 30.00 in Calm   1.0 mph 82 % 0.00 in
23:55 26.5 °F 22.0 °F 29.99 in Calm   1.0 mph 83 % 0.00 in
23:56 26.5 °F 22.0 °F 29.99 in Calm   1.0 mph 83 % 0.00 in
23:58 26.4 °F 21.9 °F 29.99 in Calm   1.0 mph 83 % 0.00 in
MarylandWx.com
Compliments of Weather Underground - 7.25 mb